sensor_id;sensor_type;location;lat;lon;timestamp;temperature;humidity
12276;DHT22;6200;48.144;11.424;2022-12-11T00:01:24;0.10;99.90
12276;DHT22;6200;48.144;11.424;2022-12-11T00:03:49;0.20;99.90
12276;DHT22;6200;48.144;11.424;2022-12-11T00:06:18;0.20;99.90
12276;DHT22;6200;48.144;11.424;2022-12-11T00:08:44;0.30;99.90
12276;DHT22;6200;48.144;11.424;2022-12-11T00:11:12;0.20;99.90
12276;DHT22;6200;48.144;11.424;2022-12-11T00:13:38;0.20;99.90
12276;DHT22;6200;48.144;11.424;2022-12-11T00:16:04;0.30;99.90
12276;DHT22;6200;48.144;11.424;2022-12-11T00:18:29;0.30;99.90
12276;DHT22;6200;48.144;11.424;2022-12-11T00:20:59;0.30;99.90
12276;DHT22;6200;48.144;11.424;2022-12-11T00:23:26;0.20;99.90
12276;DHT22;6200;48.144;11.424;2022-12-11T00:25:51;0.20;99.90
12276;DHT22;6200;48.144;11.424;2022-12-11T00:28:17;-2.00;99.90
12276;DHT22;6200;48.144;11.424;2022-12-11T00:30:45;0.20;99.90
12276;DHT22;6200;48.144;11.424;2022-12-11T00:33:12;0.20;99.90
12276;DHT22;6200;48.144;11.424;2022-12-11T00:35:44;0.20;99.90
12276;DHT22;6200;48.144;11.424;2022-12-11T00:38:14;0.20;99.90
12276;DHT22;6200;48.144;11.424;2022-12-11T00:40:41;0.20;99.90
12276;DHT22;6200;48.144;11.424;2022-12-11T00:43:07;0.20;99.90
12276;DHT22;6200;48.144;11.424;2022-12-11T00:45:44;0.10;99.90
12276;DHT22;6200;48.144;11.424;2022-12-11T00:48:10;0.20;99.90
12276;DHT22;6200;48.144;11.424;2022-12-11T00:50:36;0.20;99.90
12276;DHT22;6200;48.144;11.424;2022-12-11T00:53:03;0.10;99.90
12276;DHT22;6200;48.144;11.424;2022-12-11T00:55:29;0.10;99.90
12276;DHT22;6200;48.144;11.424;2022-12-11T00:57:56;0.10;99.90
12276;DHT22;6200;48.144;11.424;2022-12-11T01:00:23;0.10;99.90
12276;DHT22;6200;48.144;11.424;2022-12-11T01:02:49;0.10;99.90
12276;DHT22;6200;48.144;11.424;2022-12-11T01:05:15;0.00;99.90
12276;DHT22;6200;48.144;11.424;2022-12-11T01:07:41;0.00;99.90
12276;DHT22;6200;48.144;11.424;2022-12-11T01:10:06;0.00;99.90
12276;DHT22;6200;48.144;11.424;2022-12-11T01:12:55;0.00;99.90
12276;DHT22;6200;48.144;11.424;2022-12-11T01:15:22;0.00;99.90
12276;DHT22;6200;48.144;11.424;2022-12-11T01:17:49;0.00;99.90
12276;DHT22;6200;48.144;11.424;2022-12-11T01:20:15;0.00;99.90
12276;DHT22;6200;48.144;11.424;2022-12-11T01:22:40;0.00;99.90
12276;DHT22;6200;48.144;11.424;2022-12-11T01:25:06;0.00;99.90
12276;DHT22;6200;48.144;11.424;2022-12-11T01:27:32;0.00;99.90
12276;DHT22;6200;48.144;11.424;2022-12-11T01:29:57;0.00;99.90
12276;DHT22;6200;48.144;11.424;2022-12-11T01:32:23;2.50;99.90
12276;DHT22;6200;48.144;11.424;2022-12-11T01:34:48;0.00;99.90
12276;DHT22;6200;48.144;11.424;2022-12-11T01:37:14;0.00;99.90
12276;DHT22;6200;48.144;11.424;2022-12-11T01:39:40;0.00;99.90
12276;DHT22;6200;48.144;11.424;2022-12-11T01:42:05;-0.10;99.90
12276;DHT22;6200;48.144;11.424;2022-12-11T01:47:00;-0.10;99.90
12276;DHT22;6200;48.144;11.424;2022-12-11T01:49:26;-0.10;99.90
12276;DHT22;6200;48.144;11.424;2022-12-11T01:52:06;-0.10;99.90
12276;DHT22;6200;48.144;11.424;2022-12-11T01:54:33;0.00;99.90
12276;DHT22;6200;48.144;11.424;2022-12-11T01:57:02;0.00;99.90
12276;DHT22;6200;48.144;11.424;2022-12-11T01:59:30;0.00;99.90
12276;DHT22;6200;48.144;11.424;2022-12-11T02:02:16;-0.10;99.90
12276;DHT22;6200;48.144;11.424;2022-12-11T02:04:43;-0.10;99.90
12276;DHT22;6200;48.144;11.424;2022-12-11T02:07:10;-0.10;99.90
12276;DHT22;6200;48.144;11.424;2022-12-11T02:09:38;0.00;99.90
12276;DHT22;6200;48.144;11.424;2022-12-11T02:15:08;0.00;99.90
12276;DHT22;6200;48.144;11.424;2022-12-11T02:23:36;-1.20;99.90
12276;DHT22;6200;48.144;11.424;2022-12-11T02:26:19;-0.10;99.90
12276;DHT22;6200;48.144;11.424;2022-12-11T02:29:24;-0.10;99.90
12276;DHT22;6200;48.144;11.424;2022-12-11T02:31:49;0.00;99.90
12276;DHT22;6200;48.144;11.424;2022-12-11T02:34:29;0.00;99.90
12276;DHT22;6200;48.144;11.424;2022-12-11T02:36:59;0.00;99.90
12276;DHT22;6200;48.144;11.424;2022-12-11T02:39:26;0.00;99.90
12276;DHT22;6200;48.144;11.424;2022-12-11T02:41:54;-0.10;99.90
12276;DHT22;6200;48.144;11.424;2022-12-11T02:44:24;-0.10;99.90
12276;DHT22;6200;48.144;11.424;2022-12-11T02:46:52;-0.10;99.90
12276;DHT22;6200;48.144;11.424;2022-12-11T02:49:20;-0.10;99.90
12276;DHT22;6200;48.144;11.424;2022-12-11T02:51:46;-0.10;99.90
12276;DHT22;6200;48.144;11.424;2022-12-11T02:54:18;0.00;99.90
12276;DHT22;6200;48.144;11.424;2022-12-11T02:56:50;0.00;99.90
12276;DHT22;6200;48.144;11.424;2022-12-11T02:59:25;-0.10;99.90
12276;DHT22;6200;48.144;11.424;2022-12-11T03:01:53;-0.20;99.90
12276;DHT22;6200;48.144;11.424;2022-12-11T03:04:18;-0.20;99.90
12276;DHT22;6200;48.144;11.424;2022-12-11T03:06:52;-0.10;99.90
12276;DHT22;6200;48.144;11.424;2022-12-11T03:09:18;-0.10;99.90
12276;DHT22;6200;48.144;11.424;2022-12-11T03:11:43;-0.10;99.90
12276;DHT22;6200;48.144;11.424;2022-12-11T03:14:09;-0.10;99.90
12276;DHT22;6200;48.144;11.424;2022-12-11T03:19:39;-0.20;99.90
12276;DHT22;6200;48.144;11.424;2022-12-11T03:27:21;-0.10;99.90
12276;DHT22;6200;48.144;11.424;2022-12-11T03:29:59;-0.10;99.90
12276;DHT22;6200;48.144;11.424;2022-12-11T03:33:31;-0.10;99.90
12276;DHT22;6200;48.144;11.424;2022-12-11T03:35:33;-0.10;99.90
12276;DHT22;6200;48.144;11.424;2022-12-11T03:38:04;-0.10;99.90
12276;DHT22;6200;48.144;11.424;2022-12-11T03:40:31;-0.10;99.90
12276;DHT22;6200;48.144;11.424;2022-12-11T03:42:59;-0.10;99.90
12276;DHT22;6200;48.144;11.424;2022-12-11T03:45:26;-0.10;99.90
12276;DHT22;6200;48.144;11.424;2022-12-11T03:47:55;-0.10;99.90
12276;DHT22;6200;48.144;11.424;2022-12-11T03:50:23;-0.20;99.90
12276;DHT22;6200;48.144;11.424;2022-12-11T03:52:51;-0.10;99.90
12276;DHT22;6200;48.144;11.424;2022-12-11T03:55:19;-0.30;99.90
12276;DHT22;6200;48.144;11.424;2022-12-11T03:57:45;-0.20;99.90
12276;DHT22;6200;48.144;11.424;2022-12-11T04:00:14;-0.20;99.90
12276;DHT22;6200;48.144;11.424;2022-12-11T04:02:41;-0.20;99.90
12276;DHT22;6200;48.144;11.424;2022-12-11T04:05:07;-0.20;99.90
12276;DHT22;6200;48.144;11.424;2022-12-11T04:07:33;-0.20;99.90
12276;DHT22;6200;48.144;11.424;2022-12-11T04:09:59;-0.20;99.90
12276;DHT22;6200;48.144;11.424;2022-12-11T04:12:25;-0.20;99.90
12276;DHT22;6200;48.144;11.424;2022-12-11T04:14:50;-0.30;99.90
12276;DHT22;6200;48.144;11.424;2022-12-11T04:17:33;-0.30;99.90
12276;DHT22;6200;48.144;11.424;2022-12-11T04:20:17;-0.30;99.90
12276;DHT22;6200;48.144;11.424;2022-12-11T04:23:14;-0.20;99.90
12276;DHT22;6200;48.144;11.424;2022-12-11T04:26:08;-0.20;99.90
12276;DHT22;6200;48.144;11.424;2022-12-11T04:28:34;-0.30;99.90
12276;DHT22;6200;48.144;11.424;2022-12-11T04:31:01;-0.30;99.90
12276;DHT22;6200;48.144;11.424;2022-12-11T04:33:27;-0.30;99.90
12276;DHT22;6200;48.144;11.424;2022-12-11T04:35:53;-0.20;99.90
12276;DHT22;6200;48.144;11.424;2022-12-11T04:38:19;-0.20;99.90
12276;DHT22;6200;48.144;11.424;2022-12-11T04:40:44;-0.30;99.90
12276;DHT22;6200;48.144;11.424;2022-12-11T04:43:10;-0.30;99.90
12276;DHT22;6200;48.144;11.424;2022-12-11T04:45:35;-0.30;99.90
12276;DHT22;6200;48.144;11.424;2022-12-11T04:48:01;-0.30;99.90
12276;DHT22;6200;48.144;11.424;2022-12-11T04:50:26;-0.30;99.90
12276;DHT22;6200;48.144;11.424;2022-12-11T04:52:55;-0.30;99.90
12276;DHT22;6200;48.144;11.424;2022-12-11T04:55:21;-0.30;99.90
12276;DHT22;6200;48.144;11.424;2022-12-11T04:57:47;-0.30;99.90
12276;DHT22;6200;48.144;11.424;2022-12-11T05:00:13;-0.50;99.90
12276;DHT22;6200;48.144;11.424;2022-12-11T05:02:40;-0.40;99.90
12276;DHT22;6200;48.144;11.424;2022-12-11T05:05:07;-0.40;99.90
12276;DHT22;6200;48.144;11.424;2022-12-11T05:07:37;-0.40;99.90
12276;DHT22;6200;48.144;11.424;2022-12-11T05:10:04;-0.40;99.90
12276;DHT22;6200;48.144;11.424;2022-12-11T05:12:31;-0.40;99.90
12276;DHT22;6200;48.144;11.424;2022-12-11T05:14:56;-0.50;99.90
12276;DHT22;6200;48.144;11.424;2022-12-11T05:17:22;-0.40;99.90
12276;DHT22;6200;48.144;11.424;2022-12-11T05:19:49;-0.40;99.90
12276;DHT22;6200;48.144;11.424;2022-12-11T05:22:16;-0.40;99.90
12276;DHT22;6200;48.144;11.424;2022-12-11T05:24:41;-0.40;99.90
12276;DHT22;6200;48.144;11.424;2022-12-11T05:27:07;-0.40;99.90
12276;DHT22;6200;48.144;11.424;2022-12-11T05:29:33;-0.40;99.90
12276;DHT22;6200;48.144;11.424;2022-12-11T05:31:58;-0.40;99.90
12276;DHT22;6200;48.144;11.424;2022-12-11T05:34:24;-0.30;99.90
12276;DHT22;6200;48.144;11.424;2022-12-11T05:36:49;-0.30;99.90
12276;DHT22;6200;48.144;11.424;2022-12-11T05:39:15;-0.30;99.90
12276;DHT22;6200;48.144;11.424;2022-12-11T05:41:41;-0.40;99.90
12276;DHT22;6200;48.144;11.424;2022-12-11T05:44:08;-0.40;99.90
12276;DHT22;6200;48.144;11.424;2022-12-11T05:46:33;-0.50;99.90
12276;DHT22;6200;48.144;11.424;2022-12-11T05:49:00;-0.50;99.90
12276;DHT22;6200;48.144;11.424;2022-12-11T05:51:27;-0.50;99.90
12276;DHT22;6200;48.144;11.424;2022-12-11T05:53:54;-0.30;99.90
12276;DHT22;6200;48.144;11.424;2022-12-11T05:56:23;-0.40;99.90
12276;DHT22;6200;48.144;11.424;2022-12-11T05:58:49;-0.40;99.90
12276;DHT22;6200;48.144;11.424;2022-12-11T06:01:20;-0.40;99.90
12276;DHT22;6200;48.144;11.424;2022-12-11T06:03:46;-0.40;99.90
12276;DHT22;6200;48.144;11.424;2022-12-11T06:06:12;-0.40;99.90
12276;DHT22;6200;48.144;11.424;2022-12-11T06:08:38;-0.40;99.90
12276;DHT22;6200;48.144;11.424;2022-12-11T06:11:05;-0.40;99.90
12276;DHT22;6200;48.144;11.424;2022-12-11T06:13:31;-0.40;99.90
12276;DHT22;6200;48.144;11.424;2022-12-11T06:16:04;-0.30;99.90
12276;DHT22;6200;48.144;11.424;2022-12-11T06:18:30;-0.40;99.90
12276;DHT22;6200;48.144;11.424;2022-12-11T06:20:56;-0.40;99.90
12276;DHT22;6200;48.144;11.424;2022-12-11T06:23:22;-0.40;99.90
12276;DHT22;6200;48.144;11.424;2022-12-11T06:25:47;-0.50;99.90
12276;DHT22;6200;48.144;11.424;2022-12-11T06:28:13;-0.40;99.90
12276;DHT22;6200;48.144;11.424;2022-12-11T06:30:39;-0.50;99.90
12276;DHT22;6200;48.144;11.424;2022-12-11T06:33:04;-0.60;99.90
12276;DHT22;6200;48.144;11.424;2022-12-11T06:35:30;-0.60;99.90
12276;DHT22;6200;48.144;11.424;2022-12-11T06:37:55;-0.50;99.90
12276;DHT22;6200;48.144;11.424;2022-12-11T06:40:21;-0.50;99.90
12276;DHT22;6200;48.144;11.424;2022-12-11T06:42:47;-0.60;99.90
12276;DHT22;6200;48.144;11.424;2022-12-11T06:45:12;-0.40;99.90
12276;DHT22;6200;48.144;11.424;2022-12-11T06:47:38;-0.50;99.90
12276;DHT22;6200;48.144;11.424;2022-12-11T06:50:03;-0.60;99.90
12276;DHT22;6200;48.144;11.424;2022-12-11T06:52:29;-0.60;99.90
12276;DHT22;6200;48.144;11.424;2022-12-11T06:54:55;-0.50;99.90
12276;DHT22;6200;48.144;11.424;2022-12-11T06:57:21;-0.50;99.90
12276;DHT22;6200;48.144;11.424;2022-12-11T06:59:47;-0.50;99.90
12276;DHT22;6200;48.144;11.424;2022-12-11T07:02:17;-0.60;99.90
12276;DHT22;6200;48.144;11.424;2022-12-11T07:04:43;-0.60;99.90
12276;DHT22;6200;48.144;11.424;2022-12-11T07:07:09;-0.60;99.90
12276;DHT22;6200;48.144;11.424;2022-12-11T07:09:37;-0.60;99.90
12276;DHT22;6200;48.144;11.424;2022-12-11T07:12:02;-0.50;99.90
12276;DHT22;6200;48.144;11.424;2022-12-11T07:14:29;-0.50;99.90
12276;DHT22;6200;48.144;11.424;2022-12-11T07:16:55;-0.30;99.90
12276;DHT22;6200;48.144;11.424;2022-12-11T07:19:20;-0.50;99.90
12276;DHT22;6200;48.144;11.424;2022-12-11T07:21:46;-0.40;99.90
12276;DHT22;6200;48.144;11.424;2022-12-11T07:24:11;-0.30;99.90
12276;DHT22;6200;48.144;11.424;2022-12-11T07:26:37;-0.50;99.90
12276;DHT22;6200;48.144;11.424;2022-12-11T07:29:03;-0.50;99.90
12276;DHT22;6200;48.144;11.424;2022-12-11T07:31:29;-0.50;99.90
12276;DHT22;6200;48.144;11.424;2022-12-11T07:33:56;-0.40;99.90
12276;DHT22;6200;48.144;11.424;2022-12-11T07:36:22;-0.50;99.90
12276;DHT22;6200;48.144;11.424;2022-12-11T07:38:48;-0.50;99.90
12276;DHT22;6200;48.144;11.424;2022-12-11T07:41:15;1.20;99.90
12276;DHT22;6200;48.144;11.424;2022-12-11T07:43:41;-0.50;99.90
12276;DHT22;6200;48.144;11.424;2022-12-11T07:46:11;-0.50;99.90
12276;DHT22;6200;48.144;11.424;2022-12-11T07:48:38;-0.50;99.90
12276;DHT22;6200;48.144;11.424;2022-12-11T07:51:16;-0.50;99.90
12276;DHT22;6200;48.144;11.424;2022-12-11T07:53:43;-0.50;99.90
12276;DHT22;6200;48.144;11.424;2022-12-11T07:56:09;-0.50;99.90
12276;DHT22;6200;48.144;11.424;2022-12-11T07:58:35;-0.50;99.90
12276;DHT22;6200;48.144;11.424;2022-12-11T08:01:01;-0.40;99.90
12276;DHT22;6200;48.144;11.424;2022-12-11T08:03:26;-0.50;99.90
12276;DHT22;6200;48.144;11.424;2022-12-11T08:05:52;-0.40;99.90
12276;DHT22;6200;48.144;11.424;2022-12-11T08:08:18;-0.40;99.90
12276;DHT22;6200;48.144;11.424;2022-12-11T08:10:44;-0.50;99.90
12276;DHT22;6200;48.144;11.424;2022-12-11T08:13:10;-0.40;99.90
12276;DHT22;6200;48.144;11.424;2022-12-11T08:15:36;-0.40;99.90
12276;DHT22;6200;48.144;11.424;2022-12-11T08:18:02;-0.30;99.90
12276;DHT22;6200;48.144;11.424;2022-12-11T08:20:27;-0.30;99.90
12276;DHT22;6200;48.144;11.424;2022-12-11T08:22:55;-0.30;99.90
12276;DHT22;6200;48.144;11.424;2022-12-11T08:25:20;-0.30;99.90
12276;DHT22;6200;48.144;11.424;2022-12-11T08:27:46;-0.20;99.90
12276;DHT22;6200;48.144;11.424;2022-12-11T08:30:11;-0.20;99.90
12276;DHT22;6200;48.144;11.424;2022-12-11T08:32:37;-0.20;99.90
12276;DHT22;6200;48.144;11.424;2022-12-11T08:35:03;-0.20;99.90
12276;DHT22;6200;48.144;11.424;2022-12-11T08:37:28;-0.20;99.90
12276;DHT22;6200;48.144;11.424;2022-12-11T08:39:54;-0.20;99.90
12276;DHT22;6200;48.144;11.424;2022-12-11T08:42:20;-0.20;99.90
12276;DHT22;6200;48.144;11.424;2022-12-11T08:44:45;-0.20;99.90
12276;DHT22;6200;48.144;11.424;2022-12-11T08:47:11;-0.20;99.90
12276;DHT22;6200;48.144;11.424;2022-12-11T08:49:36;-0.20;99.90
12276;DHT22;6200;48.144;11.424;2022-12-11T08:52:03;-0.20;99.90
12276;DHT22;6200;48.144;11.424;2022-12-11T08:54:29;-0.20;99.90
12276;DHT22;6200;48.144;11.424;2022-12-11T08:56:54;-0.20;99.90
12276;DHT22;6200;48.144;11.424;2022-12-11T08:59:20;-0.20;99.90
12276;DHT22;6200;48.144;11.424;2022-12-11T09:01:45;-0.10;99.90
12276;DHT22;6200;48.144;11.424;2022-12-11T09:04:11;-0.10;99.90
12276;DHT22;6200;48.144;11.424;2022-12-11T09:06:37;-0.10;99.90
12276;DHT22;6200;48.144;11.424;2022-12-11T09:09:03;-0.10;99.90
12276;DHT22;6200;48.144;11.424;2022-12-11T09:11:32;-0.10;99.90
12276;DHT22;6200;48.144;11.424;2022-12-11T09:13:58;-0.10;99.90
12276;DHT22;6200;48.144;11.424;2022-12-11T09:16:25;-0.20;99.90
12276;DHT22;6200;48.144;11.424;2022-12-11T09:18:52;-0.20;99.90
12276;DHT22;6200;48.144;11.424;2022-12-11T09:21:20;-0.20;99.90
12276;DHT22;6200;48.144;11.424;2022-12-11T09:23:47;-0.20;99.90
12276;DHT22;6200;48.144;11.424;2022-12-11T09:26:15;-0.30;99.90
12276;DHT22;6200;48.144;11.424;2022-12-11T09:28:42;-0.30;99.90
12276;DHT22;6200;48.144;11.424;2022-12-11T09:31:23;-0.20;99.90
12276;DHT22;6200;48.144;11.424;2022-12-11T09:33:50;-0.30;99.90
12276;DHT22;6200;48.144;11.424;2022-12-11T09:36:16;-0.20;99.90
12276;DHT22;6200;48.144;11.424;2022-12-11T09:38:43;-0.20;99.90
12276;DHT22;6200;48.144;11.424;2022-12-11T09:41:21;-0.10;99.90
12276;DHT22;6200;48.144;11.424;2022-12-11T09:46:50;-0.10;99.90
12276;DHT22;6200;48.144;11.424;2022-12-11T09:52:21;0.00;99.90
12276;DHT22;6200;48.144;11.424;2022-12-11T09:54:52;0.00;99.90
12276;DHT22;6200;48.144;11.424;2022-12-11T09:57:41;0.00;99.90
12276;DHT22;6200;48.144;11.424;2022-12-11T10:00:44;0.00;99.90
12276;DHT22;6200;48.144;11.424;2022-12-11T10:06:22;0.00;99.90
12276;DHT22;6200;48.144;11.424;2022-12-11T10:17:16;0.00;99.90
12276;DHT22;6200;48.144;11.424;2022-12-11T10:19:43;-0.10;99.90
12276;DHT22;6200;48.144;11.424;2022-12-11T10:22:18;0.00;99.90
12276;DHT22;6200;48.144;11.424;2022-12-11T10:25:07;0.00;99.90
12276;DHT22;6200;48.144;11.424;2022-12-11T10:27:39;-0.10;99.90
12276;DHT22;6200;48.144;11.424;2022-12-11T10:35:42;0.00;99.90
12276;DHT22;6200;48.144;11.424;2022-12-11T10:38:21;0.10;99.90
12276;DHT22;6200;48.144;11.424;2022-12-11T10:40:54;0.20;99.90
12276;DHT22;6200;48.144;11.424;2022-12-11T10:43:34;0.70;99.90
12276;DHT22;6200;48.144;11.424;2022-12-11T10:46:01;0.70;99.90
12276;DHT22;6200;48.144;11.424;2022-12-11T10:48:26;0.70;99.90
12276;DHT22;6200;48.144;11.424;2022-12-11T10:51:02;0.60;99.90
12276;DHT22;6200;48.144;11.424;2022-12-11T10:53:29;0.60;99.90
12276;DHT22;6200;48.144;11.424;2022-12-11T10:55:55;0.60;99.90
12276;DHT22;6200;48.144;11.424;2022-12-11T10:58:25;0.60;99.90
12276;DHT22;6200;48.144;11.424;2022-12-11T11:01:05;0.50;99.90
12276;DHT22;6200;48.144;11.424;2022-12-11T11:03:33;0.50;99.90
12276;DHT22;6200;48.144;11.424;2022-12-11T11:06:17;0.50;99.90
12276;DHT22;6200;48.144;11.424;2022-12-11T11:08:51;0.50;99.90
12276;DHT22;6200;48.144;11.424;2022-12-11T11:11:30;0.60;99.90
12276;DHT22;6200;48.144;11.424;2022-12-11T11:14:04;0.50;99.90
12276;DHT22;6200;48.144;11.424;2022-12-11T11:16:30;0.50;99.90
12276;DHT22;6200;48.144;11.424;2022-12-11T11:18:57;0.50;99.90
12276;DHT22;6200;48.144;11.424;2022-12-11T11:21:25;0.50;99.90
12276;DHT22;6200;48.144;11.424;2022-12-11T11:23:52;0.50;99.90
12276;DHT22;6200;48.144;11.424;2022-12-11T11:26:19;0.40;99.90
12276;DHT22;6200;48.144;11.424;2022-12-11T11:28:53;0.40;99.90
12276;DHT22;6200;48.144;11.424;2022-12-11T11:31:21;0.40;99.90
12276;DHT22;6200;48.144;11.424;2022-12-11T11:34:04;-1.00;99.90
12276;DHT22;6200;48.144;11.424;2022-12-11T11:36:33;0.50;99.90
12276;DHT22;6200;48.144;11.424;2022-12-11T11:39:19;0.60;99.90
12276;DHT22;6200;48.144;11.424;2022-12-11T11:42:16;0.60;99.90
12276;DHT22;6200;48.144;11.424;2022-12-11T11:47:26;0.70;99.90
12276;DHT22;6200;48.144;11.424;2022-12-11T11:50:15;0.60;99.90
12276;DHT22;6200;48.144;11.424;2022-12-11T11:52:54;0.50;99.90
12276;DHT22;6200;48.144;11.424;2022-12-11T11:55:41;0.40;99.90
12276;DHT22;6200;48.144;11.424;2022-12-11T11:58:17;0.40;99.90
12276;DHT22;6200;48.144;11.424;2022-12-11T12:00:47;0.20;99.90
12276;DHT22;6200;48.144;11.424;2022-12-11T12:03:15;0.30;99.90
12276;DHT22;6200;48.144;11.424;2022-12-11T12:17:16;0.10;99.90
12276;DHT22;6200;48.144;11.424;2022-12-11T12:25:34;0.10;99.90
12276;DHT22;6200;48.144;11.424;2022-12-11T12:28:09;0.00;99.90
12276;DHT22;6200;48.144;11.424;2022-12-11T12:31:00;0.10;99.90
12276;DHT22;6200;48.144;11.424;2022-12-11T12:45:08;0.20;99.90
12276;DHT22;6200;48.144;11.424;2022-12-11T12:47:38;0.20;99.90
12276;DHT22;6200;48.144;11.424;2022-12-11T12:50:10;0.20;99.90
12276;DHT22;6200;48.144;11.424;2022-12-11T12:52:38;0.20;99.90
12276;DHT22;6200;48.144;11.424;2022-12-11T12:55:27;0.30;99.90
12276;DHT22;6200;48.144;11.424;2022-12-11T12:57:55;0.30;99.90
12276;DHT22;6200;48.144;11.424;2022-12-11T13:02:56;0.30;99.90
12276;DHT22;6200;48.144;11.424;2022-12-11T13:05:27;0.30;99.90
12276;DHT22;6200;48.144;11.424;2022-12-11T13:07:57;0.30;99.90
12276;DHT22;6200;48.144;11.424;2022-12-11T13:10:32;0.30;99.90
12276;DHT22;6200;48.144;11.424;2022-12-11T13:12:59;0.30;99.90
12276;DHT22;6200;48.144;11.424;2022-12-11T13:15:40;0.30;99.90
12276;DHT22;6200;48.144;11.424;2022-12-11T13:20:57;0.20;99.90
12276;DHT22;6200;48.144;11.424;2022-12-11T13:23:31;0.20;99.90
12276;DHT22;6200;48.144;11.424;2022-12-11T13:25:59;0.20;99.90
12276;DHT22;6200;48.144;11.424;2022-12-11T13:29:26;0.20;99.90
12276;DHT22;6200;48.144;11.424;2022-12-11T13:33:49;0.10;99.90
12276;DHT22;6200;48.144;11.424;2022-12-11T13:38:54;0.10;99.90
12276;DHT22;6200;48.144;11.424;2022-12-11T13:41:19;0.10;99.90
12276;DHT22;6200;48.144;11.424;2022-12-11T13:43:48;0.10;99.90
12276;DHT22;6200;48.144;11.424;2022-12-11T13:46:18;0.10;99.90
12276;DHT22;6200;48.144;11.424;2022-12-11T13:51:15;0.00;99.90
12276;DHT22;6200;48.144;11.424;2022-12-11T13:53:41;0.00;99.90
12276;DHT22;6200;48.144;11.424;2022-12-11T13:56:16;0.10;99.90
12276;DHT22;6200;48.144;11.424;2022-12-11T13:58:42;0.10;99.90
12276;DHT22;6200;48.144;11.424;2022-12-11T14:01:19;0.10;99.90
12276;DHT22;6200;48.144;11.424;2022-12-11T14:06:24;0.20;99.90
12276;DHT22;6200;48.144;11.424;2022-12-11T14:08:52;0.20;99.90
12276;DHT22;6200;48.144;11.424;2022-12-11T14:11:22;0.20;99.90
12276;DHT22;6200;48.144;11.424;2022-12-11T14:13:49;0.20;99.90
12276;DHT22;6200;48.144;11.424;2022-12-11T14:16:20;0.20;99.90
12276;DHT22;6200;48.144;11.424;2022-12-11T14:18:48;0.20;99.90
12276;DHT22;6200;48.144;11.424;2022-12-11T14:21:24;0.20;99.90
12276;DHT22;6200;48.144;11.424;2022-12-11T14:23:52;0.20;99.90
12276;DHT22;6200;48.144;11.424;2022-12-11T14:26:24;0.10;99.90
12276;DHT22;6200;48.144;11.424;2022-12-11T14:28:50;0.00;99.90
12276;DHT22;6200;48.144;11.424;2022-12-11T14:31:22;0.00;99.90
12276;DHT22;6200;48.144;11.424;2022-12-11T14:33:54;0.10;99.90
12276;DHT22;6200;48.144;11.424;2022-12-11T14:36:20;0.10;99.90
12276;DHT22;6200;48.144;11.424;2022-12-11T14:38:57;0.00;99.90
12276;DHT22;6200;48.144;11.424;2022-12-11T14:41:31;0.00;99.90
12276;DHT22;6200;48.144;11.424;2022-12-11T14:44:02;0.00;99.90
12276;DHT22;6200;48.144;11.424;2022-12-11T14:46:36;0.00;99.90
12276;DHT22;6200;48.144;11.424;2022-12-11T14:49:18;0.00;99.90
12276;DHT22;6200;48.144;11.424;2022-12-11T14:51:45;0.00;99.90
12276;DHT22;6200;48.144;11.424;2022-12-11T14:54:27;-0.10;99.90
12276;DHT22;6200;48.144;11.424;2022-12-11T14:56:54;-0.10;99.90
12276;DHT22;6200;48.144;11.424;2022-12-11T14:59:22;-0.20;99.90
12276;DHT22;6200;48.144;11.424;2022-12-11T15:02:16;-0.20;99.90
12276;DHT22;6200;48.144;11.424;2022-12-11T15:04:43;-0.30;99.90
12276;DHT22;6200;48.144;11.424;2022-12-11T15:07:19;-0.30;99.90
12276;DHT22;6200;48.144;11.424;2022-12-11T15:09:46;-0.30;99.90
12276;DHT22;6200;48.144;11.424;2022-12-11T15:12:15;-0.30;99.90
12276;DHT22;6200;48.144;11.424;2022-12-11T15:14:55;-0.40;99.90
12276;DHT22;6200;48.144;11.424;2022-12-11T15:17:22;-0.40;99.90
12276;DHT22;6200;48.144;11.424;2022-12-11T15:19:51;-0.50;99.90
12276;DHT22;6200;48.144;11.424;2022-12-11T15:22:19;-0.50;99.90
12276;DHT22;6200;48.144;11.424;2022-12-11T15:24:50;-0.50;99.90
12276;DHT22;6200;48.144;11.424;2022-12-11T15:27:34;-0.60;99.90
12276;DHT22;6200;48.144;11.424;2022-12-11T15:32:44;-0.70;99.90
12276;DHT22;6200;48.144;11.424;2022-12-11T15:35:26;-0.60;99.90
12276;DHT22;6200;48.144;11.424;2022-12-11T15:37:53;-0.70;99.90
12276;DHT22;6200;48.144;11.424;2022-12-11T15:40:19;-0.70;99.90
12276;DHT22;6200;48.144;11.424;2022-12-11T15:42:45;-0.90;99.90
12276;DHT22;6200;48.144;11.424;2022-12-11T15:45:19;-0.90;99.90
12276;DHT22;6200;48.144;11.424;2022-12-11T15:47:46;-0.90;99.90
12276;DHT22;6200;48.144;11.424;2022-12-11T15:50:18;-0.90;99.90
12276;DHT22;6200;48.144;11.424;2022-12-11T15:52:45;-1.00;99.90
12276;DHT22;6200;48.144;11.424;2022-12-11T15:55:12;-0.90;99.90
12276;DHT22;6200;48.144;11.424;2022-12-11T15:57:39;-1.00;99.90
12276;DHT22;6200;48.144;11.424;2022-12-11T16:00:09;-1.00;99.90
12276;DHT22;6200;48.144;11.424;2022-12-11T16:02:37;-1.00;99.90
12276;DHT22;6200;48.144;11.424;2022-12-11T16:05:03;-1.00;99.90
12276;DHT22;6200;48.144;11.424;2022-12-11T16:07:29;-1.00;99.90
12276;DHT22;6200;48.144;11.424;2022-12-11T16:09:54;-1.00;99.90
12276;DHT22;6200;48.144;11.424;2022-12-11T16:12:20;-0.90;99.90
12276;DHT22;6200;48.144;11.424;2022-12-11T16:14:46;-0.90;99.90
12276;DHT22;6200;48.144;11.424;2022-12-11T16:17:13;-0.90;99.90
12276;DHT22;6200;48.144;11.424;2022-12-11T16:19:40;-0.90;99.90
12276;DHT22;6200;48.144;11.424;2022-12-11T16:22:06;-1.00;99.90
12276;DHT22;6200;48.144;11.424;2022-12-11T16:24:33;-1.00;99.90
12276;DHT22;6200;48.144;11.424;2022-12-11T16:26:59;-1.00;99.90
12276;DHT22;6200;48.144;11.424;2022-12-11T16:29:24;-1.00;99.90
12276;DHT22;6200;48.144;11.424;2022-12-11T16:31:50;-1.10;99.90
12276;DHT22;6200;48.144;11.424;2022-12-11T16:34:16;-1.00;99.90
12276;DHT22;6200;48.144;11.424;2022-12-11T16:36:41;-1.10;99.90
12276;DHT22;6200;48.144;11.424;2022-12-11T16:39:09;-1.10;99.90
12276;DHT22;6200;48.144;11.424;2022-12-11T16:41:35;-1.10;99.90
12276;DHT22;6200;48.144;11.424;2022-12-11T16:44:01;-1.10;99.90
12276;DHT22;6200;48.144;11.424;2022-12-11T16:46:27;-1.10;99.90
12276;DHT22;6200;48.144;11.424;2022-12-11T16:48:53;-1.00;99.90
12276;DHT22;6200;48.144;11.424;2022-12-11T16:51:18;-1.10;99.90
12276;DHT22;6200;48.144;11.424;2022-12-11T16:53:44;-1.00;99.90
12276;DHT22;6200;48.144;11.424;2022-12-11T16:56:10;-1.00;99.90
12276;DHT22;6200;48.144;11.424;2022-12-11T16:58:35;-1.00;99.90
12276;DHT22;6200;48.144;11.424;2022-12-11T17:01:07;-1.00;99.90
12276;DHT22;6200;48.144;11.424;2022-12-11T17:03:36;-1.00;99.90
12276;DHT22;6200;48.144;11.424;2022-12-11T17:06:05;-1.00;99.90
12276;DHT22;6200;48.144;11.424;2022-12-11T17:08:31;-0.90;99.90
12276;DHT22;6200;48.144;11.424;2022-12-11T17:10:56;-1.00;99.90
12276;DHT22;6200;48.144;11.424;2022-12-11T17:13:22;-1.00;99.90
12276;DHT22;6200;48.144;11.424;2022-12-11T17:15:47;-1.00;99.90
12276;DHT22;6200;48.144;11.424;2022-12-11T17:18:13;-0.90;99.90
12276;DHT22;6200;48.144;11.424;2022-12-11T17:20:43;-0.90;99.90
12276;DHT22;6200;48.144;11.424;2022-12-11T17:23:10;-0.90;99.90